Time;durP1;ratioP1;P1;durP2;ratioP2;P2;SDS_P1;SDS_P2;PMS_P1;PMS_P2;Temp;Humidity;BMP_temperature;BMP_pressure;BME280_temperature;BME280_humidity;BME280_pressure;Samples;Min_cycle;Max_cycle;Signal;HPM_P1;HPM_P2
2022/08/06 00:00:30;;;;;;;;;;;;;;;;;;6268898;22;20244;-84
2022/08/06 00:02:56;;;;;;;;;;;;;;;;;;6294749;22;19949;-84
2022/08/06 00:05:21;;;;;;;;;;;;;;;;;;6291999;22;19915;-84
2022/08/06 00:07:47;;;;;;;;;;;;;;;;;;6269015;22;19915;-84
2022/08/06 00:10:13;;;;;;;;;;;;;;;;;;6291029;22;20013;-84
2022/08/06 00:12:39;;;;;;;;;;;;;;;;;;6265589;22;19919;-84
2022/08/06 00:15:05;;;;;;;;;;;;;;;;;;6260940;22;19919;-84
2022/08/06 00:17:31;;;;;;;;;;;;;;;;;;6288771;22;19992;-84
2022/08/06 00:19:57;;;;;;;;;;;;;;;;;;6287618;22;19918;-83
2022/08/06 00:22:23;;;;;;;;;;;;;;;;;;6286627;22;19914;-84
2022/08/06 00:24:49;;;;;;;;;;;;;;;;;;6263453;22;19942;-84
2022/08/06 00:27:15;;;;;;;;;;;;;;;;;;6259021;22;19950;-84
2022/08/06 00:29:41;;;;;;;;;;;;;;;;;;6261088;22;19911;-84
2022/08/06 00:32:07;;;;;;;;;;;;;;;;;;6286874;22;19914;-84
2022/08/06 00:34:36;;;;;;;;;;;;;;;;;;6263648;22;20330;-83
2022/08/06 00:37:02;;;;;;;;;;;;;;;;;;6234841;22;20463;-83
2022/08/06 00:39:28;;;;;;;;;;;;;;;;;;6264077;22;19922;-83
2022/08/06 00:41:54;;;;;;;;;;;;;;;;;;6289514;22;19926;-84
2022/08/06 00:44:20;;;;;;;;;;;;;;;;;;6260989;22;20207;-84
2022/08/06 00:46:47;;;;;;;;;;;;;;;;;;6290518;22;19921;-84
2022/08/06 00:49:13;;;;;;;;;;;;;;;;;;6234347;22;19914;-84
2022/08/06 00:51:39;;;;;;;;;;;;;;;;;;6263705;22;19925;-83
2022/08/06 00:54:05;;;;;;;;;;;;;;;;;;6235035;22;20403;-84
2022/08/06 00:56:31;;;;;;;;;;;;;;;;;;6290834;22;19969;-83
2022/08/06 00:58:57;;;;;;;;;;;;;;;;;;6289250;22;19990;-83
2022/08/06 01:01:23;;;;;;;;;;;;;;;;;;6260303;22;19915;-84
2022/08/06 01:03:48;;;;;;;;;;;;;;;;;;6238265;22;20339;-83
2022/08/06 01:06:14;;;;;;;;;;;;;;;;;;6259842;22;19918;-83
2022/08/06 01:08:40;;;;;;;;;;;;;;;;;;6289071;22;19994;-83
2022/08/06 01:11:06;;;;;;;;;;;;;;;;;;6287783;22;19911;-83
2022/08/06 01:13:32;;;;;;;;;;;;;;;;;;6289293;22;19914;-83
2022/08/06 01:15:58;;;;;;;;;;;;;;;;;;6287488;22;19915;-84
2022/08/06 01:18:24;;;;;;;;;;;;;;;;;;6290513;22;19937;-84
2022/08/06 01:20:50;;;;;;;;;;;;;;;;;;6263574;22;19919;-84
2022/08/06 01:23:16;;;;;;;;;;;;;;;;;;6258829;22;19915;-84
2022/08/06 01:25:42;;;;;;;;;;;;;;;;;;6286822;22;19968;-84
2022/08/06 01:28:08;;;;;;;;;;;;;;;;;;6288003;22;19922;-83
2022/08/06 01:30:34;;;;;;;;;;;;;;;;;;6287984;22;20369;-84
2022/08/06 01:33:00;;;;;;;;;;;;;;;;;;6286306;22;19915;-84
2022/08/06 01:35:26;;;;;;;;;;;;;;;;;;6265557;22;19980;-84
2022/08/06 01:37:52;;;;;;;;;;;;;;;;;;6290830;22;20005;-83
2022/08/06 01:40:18;;;;;;;;;;;;;;;;;;6239631;22;20823;-83
2022/08/06 01:42:44;;;;;;;;;;;;;;;;;;6267027;22;19918;-83
2022/08/06 01:45:10;;;;;;;;;;;;;;;;;;6264261;22;19938;-84
2022/08/06 01:47:36;;;;;;;;;;;;;;;;;;6292605;22;19946;-84
2022/08/06 01:50:02;;;;;;;;;;;;;;;;;;6291475;22;20344;-83
2022/08/06 01:52:28;;;;;;;;;;;;;;;;;;6293271;22;20865;-83
2022/08/06 01:54:54;;;;;;;;;;;;;;;;;;6267007;22;20335;-83
2022/08/06 01:57:22;;;;;;;;;;;;;;;;;;6264416;22;20935;-83
2022/08/06 01:59:48;;;;;;;;;;;;;;;;;;6242254;22;20233;-84
2022/08/06 02:02:14;;;;;;;;;;;;;;;;;;6264269;22;19953;-84
2022/08/06 02:04:40;;;;;;;;;;;;;;;;;;6266938;22;19922;-83
2022/08/06 02:07:06;;;;;;;;;;;;;;;;;;6264628;22;19915;-83
2022/08/06 02:09:32;;;;;;;;;;;;;;;;;;6268308;22;20077;-84
2022/08/06 02:11:58;;;;;;;;;;;;;;;;;;6263272;22;19965;-84
2022/08/06 02:14:24;;;;;;;;;;;;;;;;;;6257938;22;19915;-83
2022/08/06 02:16:50;;;;;;;;;;;;;;;;;;6259657;22;20290;-83
2022/08/06 02:19:17;;;;;;;;;;;;;;;;;;6259409;22;20519;-84
2022/08/06 02:21:43;;;;;;;;;;;;;;;;;;6260872;22;19915;-84
2022/08/06 02:24:09;;;;;;;;;;;;;;;;;;6257138;22;19979;-84
2022/08/06 02:26:35;;;;;;;;;;;;;;;;;;6261281;22;19985;-84
2022/08/06 02:29:01;;;;;;;;;;;;;;;;;;6257396;22;19944;-84
2022/08/06 02:31:27;;;;;;;;;;;;;;;;;;6262969;22;19999;-84
2022/08/06 02:33:53;;;;;;;;;;;;;;;;;;6261222;22;19911;-84
2022/08/06 02:36:19;;;;;;;;;;;;;;;;;;6256208;22;21094;-84
2022/08/06 02:38:45;;;;;;;;;;;;;;;;;;6259785;22;20288;-84
2022/08/06 02:41:12;;;;;;;;;;;;;;;;;;6282886;22;20081;-84
2022/08/06 02:43:38;;;;;;;;;;;;;;;;;;6260967;22;19925;-84
2022/08/06 02:46:04;;;;;;;;;;;;;;;;;;6285532;22;19915;-84
2022/08/06 02:48:30;;;;;;;;;;;;;;;;;;6260658;22;19998;-84
2022/08/06 02:50:56;;;;;;;;;;;;;;;;;;6259831;22;20667;-84
2022/08/06 02:53:21;;;;;;;;;;;;;;;;;;6283537;22;19921;-84
2022/08/06 02:55:47;;;;;;;;;;;;;;;;;;6285105;22;20030;-84
2022/08/06 02:58:13;;;;;;;;;;;;;;;;;;6257037;22;19911;-84
2022/08/06 03:00:39;;;;;;;;;;;;;;;;;;6258875;22;20005;-83
2022/08/06 03:03:07;;;;;;;;;;;;;;;;;;6258628;22;19919;-84
2022/08/06 03:05:33;;;;;;;;;;;;;;;;;;6231437;22;19915;-83
2022/08/06 03:08:01;;;;;;;;;;;;;;;;;;6282544;22;20738;-83
2022/08/06 03:10:27;;;;;;;;;;;;;;;;;;6288604;22;19946;-83
2022/08/06 03:12:56;;;;;;;;;;;;;;;;;;6263142;22;20374;-83
2022/08/06 03:15:22;;;;;;;;;;;;;;;;;;6232780;22;19914;-83
2022/08/06 03:17:48;;;;;;;;;;;;;;;;;;6287039;22;19922;-84
2022/08/06 03:20:14;;;;;;;;;;;;;;;;;;6255859;22;19919;-85
2022/08/06 03:22:40;;;;;;;;;;;;;;;;;;6288103;22;19914;-85
2022/08/06 03:25:05;;;;;;;;;;;;;;;;;;6285255;22;19926;-85
2022/08/06 03:27:31;;;;;;;;;;;;;;;;;;6285983;22;19981;-85
2022/08/06 03:29:57;;;;;;;;;;;;;;;;;;6285432;22;19914;-85
2022/08/06 03:32:23;;;;;;;;;;;;;;;;;;6280376;22;19915;-85
2022/08/06 03:34:49;;;;;;;;;;;;;;;;;;6259383;22;19918;-85
2022/08/06 03:37:15;;;;;;;;;;;;;;;;;;6259274;22;19919;-85
2022/08/06 03:39:41;;;;;;;;;;;;;;;;;;6263221;22;20328;-85
2022/08/06 03:42:07;;;;;;;;;;;;;;;;;;6262486;22;19999;-85
2022/08/06 03:44:36;;;;;;;;;;;;;;;;;;6265343;22;19926;-85
2022/08/06 03:47:02;;;;;;;;;;;;;;;;;;6261548;22;20263;-85
2022/08/06 03:49:27;;;;;;;;;;;;;;;;;;6288746;22;20028;-85
2022/08/06 03:51:53;;;;;;;;;;;;;;;;;;6264311;22;20335;-85
2022/08/06 03:54:19;;;;;;;;;;;;;;;;;;6287884;22;20368;-85
2022/08/06 03:56:45;;;;;;;;;;;;;;;;;;6265580;22;19978;-85
2022/08/06 03:59:11;;;;;;;;;;;;;;;;;;6287031;22;19965;-85
2022/08/06 04:01:37;;;;;;;;;;;;;;;;;;6291352;22;19990;-85
2022/08/06 04:04:06;;;;;;;;;;;;;;;;;;6288722;22;19914;-85
2022/08/06 04:06:32;;;;;;;;;;;;;;;;;;6241347;22;19975;-85
2022/08/06 04:08:57;;;;;;;;;;;;;;;;;;6265653;22;19980;-85
2022/08/06 04:11:24;;;;;;;;;;;;;;;;;;6290793;22;19910;-85
2022/08/06 04:13:49;;;;;;;;;;;;;;;;;;6294939;22;19918;-85
2022/08/06 04:16:15;;;;;;;;;;;;;;;;;;6263749;22;19922;-85
2022/08/06 04:18:41;;;;;;;;;;;;;;;;;;6263954;22;19915;-85
2022/08/06 04:21:07;;;;;;;;;;;;;;;;;;6288700;22;20315;-85
2022/08/06 04:23:33;;;;;;;;;;;;;;;;;;6294517;22;20327;-85
2022/08/06 04:25:59;;;;;;;;;;;;;;;;;;6286380;22;19926;-86
2022/08/06 04:28:25;;;;;;;;;;;;;;;;;;6264442;22;19950;-85
2022/08/06 04:30:51;;;;;;;;;;;;;;;;;;6290545;22;19914;-85
2022/08/06 04:33:17;;;;;;;;;;;;;;;;;;6261928;22;20660;-85
2022/08/06 04:35:43;;;;;;;;;;;;;;;;;;6263509;22;19914;-85
2022/08/06 04:38:09;;;;;;;;;;;;;;;;;;6261297;22;19985;-85
2022/08/06 04:40:35;;;;;;;;;;;;;;;;;;6290911;22;19925;-85
2022/08/06 04:43:01;;;;;;;;;;;;;;;;;;6261459;22;19919;-86
2022/08/06 04:45:27;;;;;;;;;;;;;;;;;;6293788;22;19942;-86
2022/08/06 04:47:53;;;;;;;;;;;;;;;;;;6265824;22;19914;-85
2022/08/06 04:50:21;;;;;;;;;;;;;;;;;;6264760;22;19968;-85
2022/08/06 04:52:49;;;;;;;;;;;;;;;;;;6262675;22;19918;-85
2022/08/06 04:55:15;;;;;;;;;;;;;;;;;;6289850;22;19914;-86
2022/08/06 04:57:41;;;;;;;;;;;;;;;;;;6290913;22;20232;-85
2022/08/06 05:00:11;;;;;;;;;;;;;;;;;;6260903;22;19919;-85
2022/08/06 05:02:37;;;;;;;;;;;;;;;;;;6263975;22;19922;-86
2022/08/06 05:05:02;;;;;;;;;;;;;;;;;;6287541;22;19969;-86
2022/08/06 05:07:28;;;;;;;;;;;;;;;;;;6290670;22;19945;-85
2022/08/06 05:09:54;;;;;;;;;;;;;;;;;;6265130;22;19957;-85
2022/08/06 05:12:20;;;;;;;;;;;;;;;;;;6288540;22;19915;-85
2022/08/06 05:14:46;;;;;;;;;;;;;;;;;;6289839;22;19914;-86
2022/08/06 05:17:12;;;;;;;;;;;;;;;;;;6260078;22;19915;-85
2022/08/06 05:19:38;;;;;;;;;;;;;;;;;;6289123;22;19919;-85
2022/08/06 05:22:05;;;;;;;;;;;;;;;;;;6285306;22;19915;-86
2022/08/06 05:24:31;;;;;;;;;;;;;;;;;;6239907;22;19910;-85
2022/08/06 05:26:59;;;;;;;;;;;;;;;;;;6264267;22;19954;-85
2022/08/06 05:29:25;;;;;;;;;;;;;;;;;;6265356;22;19914;-85
2022/08/06 05:31:52;;;;;;;;;;;;;;;;;;6288010;22;19973;-85
2022/08/06 05:34:21;;;;;;;;;;;;;;;;;;6261300;22;20014;-85
2022/08/06 05:36:47;;;;;;;;;;;;;;;;;;6262317;22;19985;-85
2022/08/06 05:39:13;;;;;;;;;;;;;;;;;;6237539;22;19918;-85
2022/08/06 05:41:41;;;;;;;;;;;;;;;;;;6288606;22;19979;-85
2022/08/06 05:44:06;;;;;;;;;;;;;;;;;;6261214;22;19914;-85
2022/08/06 05:46:32;;;;;;;;;;;;;;;;;;6262353;22;19914;-85
2022/08/06 05:48:59;;;;;;;;;;;;;;;;;;6265383;22;19945;-85
2022/08/06 05:51:25;;;;;;;;;;;;;;;;;;6242260;22;19922;-85
2022/08/06 05:53:51;;;;;;;;;;;;;;;;;;6268253;22;19914;-85
2022/08/06 05:56:17;;;;;;;;;;;;;;;;;;6264663;22;19941;-85
2022/08/06 05:58:43;;;;;;;;;;;;;;;;;;6293132;22;20387;-85
2022/08/06 06:01:09;;;;;;;;;;;;;;;;;;6290363;22;19918;-85
2022/08/06 06:03:34;;;;;;;;;;;;;;;;;;6294506;22;20394;-85
2022/08/06 06:06:00;;;;;;;;;;;;;;;;;;6265845;22;19937;-85
2022/08/06 06:08:26;;;;;;;;;;;;;;;;;;6295538;22;19914;-85
2022/08/06 06:10:52;;;;;;;;;;;;;;;;;;6292485;22;20131;-85
2022/08/06 06:13:18;;;;;;;;;;;;;;;;;;6291282;22;19918;-85
2022/08/06 06:15:44;;;;;;;;;;;;;;;;;;6262358;22;19918;-85
2022/08/06 06:18:10;;;;;;;;;;;;;;;;;;6262731;22;19914;-85
2022/08/06 06:20:36;;;;;;;;;;;;;;;;;;6292376;22;20073;-85
2022/08/06 06:23:02;;;;;;;;;;;;;;;;;;6292861;22;19915;-85
2022/08/06 06:25:28;;;;;;;;;;;;;;;;;;6291353;22;19922;-85
2022/08/06 06:27:54;;;;;;;;;;;;;;;;;;6291603;22;19915;-85
2022/08/06 06:30:20;;;;;;;;;;;;;;;;;;6288089;22;20358;-85
2022/08/06 06:32:46;;;;;;;;;;;;;;;;;;6291673;22;19911;-85
2022/08/06 06:35:12;;;;;;;;;;;;;;;;;;6288209;22;20019;-85
2022/08/06 06:37:38;;;;;;;;;;;;;;;;;;6295810;22;19910;-85
2022/08/06 06:40:04;;;;;;;;;;;;;;;;;;6262572;22;19919;-85
2022/08/06 06:42:30;;;;;;;;;;;;;;;;;;6290871;22;19915;-86
2022/08/06 06:44:56;;;;;;;;;;;;;;;;;;6290777;22;19918;-84
2022/08/06 06:47:22;;;;;;;;;;;;;;;;;;6287872;22;19922;-84
2022/08/06 06:49:48;;;;;;;;;;;;;;;;;;6293243;22;19922;-84
2022/08/06 06:52:14;;;;;;;;;;;;;;;;;;6293840;22;19954;-84
2022/08/06 06:54:40;;;;;;;;;;;;;;;;;;6290660;22;19918;-84
2022/08/06 06:57:09;;;;;;;;;;;;;;;;;;6262083;22;20296;-85
2022/08/06 06:59:35;;;;;;;;;;;;;;;;;;6264735;22;19915;-85
2022/08/06 07:02:01;;;;;;;;;;;;;;;;;;6288761;22;20710;-85
2022/08/06 07:04:27;;;;;;;;;;;;;;;;;;6291071;22;19950;-85
2022/08/06 07:06:54;;;;;;;;;;;;;;;;;;6293298;22;19963;-85
2022/08/06 07:09:20;;;;;;;;;;;;;;;;;;6237518;22;19915;-85
2022/08/06 07:11:46;;;;;;;;;;;;;;;;;;6291161;22;20243;-85
2022/08/06 07:14:12;;;;;;;;;;;;;;;;;;6288675;22;19914;-85
2022/08/06 07:16:37;;;;;;;;;;;;;;;;;;6264221;22;19915;-85
2022/08/06 07:19:07;;;;;;;;;;;;;;;;;;6288796;22;19922;-85
2022/08/06 07:21:36;;;;;;;;;;;;;;;;;;6290464;22;19911;-85
2022/08/06 07:24:02;;;;;;;;;;;;;;;;;;6262560;22;19964;-85
2022/08/06 07:26:28;;;;;;;;;;;;;;;;;;6264131;22;19914;-85
2022/08/06 07:28:54;;;;;;;;;;;;;;;;;;6287047;22;19921;-87
2022/08/06 07:31:20;;;;;;;;;;;;;;;;;;6285077;22;19930;-85
2022/08/06 07:33:46;;;;;;;;;;;;;;;;;;6288640;22;20882;-85
2022/08/06 07:36:12;;;;;;;;;;;;;;;;;;6287187;22;19915;-85
2022/08/06 07:38:38;;;;;;;;;;;;;;;;;;6292789;22;19956;-86
2022/08/06 07:41:04;;;;;;;;;;;;;;;;;;6287941;22;19923;-86
2022/08/06 07:43:30;;;;;;;;;;;;;;;;;;6295294;22;20122;-85
2022/08/06 07:45:56;;;;;;;;;;;;;;;;;;6295588;22;19914;-85
2022/08/06 07:48:22;;;;;;;;;;;;;;;;;;6294110;22;20032;-84
2022/08/06 07:50:48;;;;;;;;;;;;;;;;;;6294612;22;19922;-85
2022/08/06 07:53:14;;;;;;;;;;;;;;;;;;6241712;22;20189;-85
2022/08/06 07:55:40;;;;;;;;;;;;;;;;;;6295295;22;20285;-84
2022/08/06 07:58:06;;;;;;;;;;;;;;;;;;6290771;22;20252;-85
2022/08/06 08:00:32;;;;;;;;;;;;;;;;;;6292905;22;19921;-85
2022/08/06 08:08:27;;;;;;;;;;;;;;;;;;6266091;22;19918;-85
2022/08/06 08:10:53;;;;;;;;;;;;;;;;;;6293727;22;19915;-85
2022/08/06 08:13:19;;;;;;;;;;;;;;;;;;6291034;22;19918;-85
2022/08/06 08:15:45;;;;;;;;;;;;;;;;;;6262892;22;19915;-86
2022/08/06 08:18:11;;;;;;;;;;;;;;;;;;6232543;22;19914;-86
2022/08/06 08:20:37;;;;;;;;;;;;;;;;;;6261994;22;19918;-86
2022/08/06 08:23:03;;;;;;;;;;;;;;;;;;6261328;22;19921;-85
2022/08/06 08:25:29;;;;;;;;;;;;;;;;;;6289433;22;19919;-85
2022/08/06 08:27:55;;;;;;;;;;;;;;;;;;6292062;22;19915;-85
2022/08/06 08:30:21;;;;;;;;;;;;;;;;;;6288137;22;20375;-85
2022/08/06 08:32:47;;;;;;;;;;;;;;;;;;6265642;22;20470;-85
2022/08/06 08:35:15;;;;;;;;;;;;;;;;;;6288850;22;20328;-86
2022/08/06 08:37:41;;;;;;;;;;;;;;;;;;6292124;22;19914;-86
2022/08/06 08:40:07;;;;;;;;;;;;;;;;;;6260290;22;19965;-85
2022/08/06 08:42:35;;;;;;;;;;;;;;;;;;6264895;22;20395;-86
2022/08/06 08:45:01;;;;;;;;;;;;;;;;;;6286335;22;19937;-85
2022/08/06 08:47:27;;;;;;;;;;;;;;;;;;6291228;22;19922;-86
2022/08/06 08:49:53;;;;;;;;;;;;;;;;;;6290830;22;20335;-85
2022/08/06 08:52:22;;;;;;;;;;;;;;;;;;6288076;22;19993;-85
2022/08/06 08:54:48;;;;;;;;;;;;;;;;;;6289383;22;19981;-85
2022/08/06 08:57:14;;;;;;;;;;;;;;;;;;6288144;22;19914;-85
2022/08/06 08:59:40;;;;;;;;;;;;;;;;;;6289448;22;19984;-85
2022/08/06 09:02:06;;;;;;;;;;;;;;;;;;6286482;22;19918;-85
2022/08/06 09:04:32;;;;;;;;;;;;;;;;;;6266077;22;19914;-84
2022/08/06 09:07:01;;;;;;;;;;;;;;;;;;6262341;22;19986;-84
2022/08/06 09:09:27;;;;;;;;;;;;;;;;;;6264531;22;19915;-85
2022/08/06 09:11:53;;;;;;;;;;;;;;;;;;6263174;22;19911;-85
2022/08/06 09:14:19;;;;;;;;;;;;;;;;;;6286875;22;19918;-86
2022/08/06 09:16:45;;;;;;;;;;;;;;;;;;6260880;22;20106;-85
2022/08/06 09:19:11;;;;;;;;;;;;;;;;;;6289053;22;20495;-86
2022/08/06 09:21:37;;;;;;;;;;;;;;;;;;6263404;22;19915;-86
2022/08/06 09:24:03;;;;;;;;;;;;;;;;;;6259151;22;19992;-86
2022/08/06 09:26:33;;;;;;;;;;;;;;;;;;6290788;22;19923;-86
2022/08/06 09:28:59;;;;;;;;;;;;;;;;;;6238006;22;20645;-88
2022/08/06 09:31:25;;;;;;;;;;;;;;;;;;6264457;22;20404;-87
2022/08/06 09:33:51;;;;;;;;;;;;;;;;;;6290893;22;19915;-86
2022/08/06 09:36:17;;;;;;;;;;;;;;;;;;6260348;22;20024;-86
2022/08/06 09:38:43;;;;;;;;;;;;;;;;;;6264334;22;19914;-86
2022/08/06 09:41:09;;;;;;;;;;;;;;;;;;6287071;22;19923;-87
2022/08/06 09:43:36;;;;;;;;;;;;;;;;;;6262237;22;19926;-87
2022/08/06 09:46:02;;;;;;;;;;;;;;;;;;6289953;22;20251;-86
2022/08/06 09:48:28;;;;;;;;;;;;;;;;;;6265717;22;19961;-86
2022/08/06 09:50:54;;;;;;;;;;;;;;;;;;6291605;22;19915;-85
2022/08/06 09:53:22;;;;;;;;;;;;;;;;;;6264827;22;19940;-86
2022/08/06 09:55:48;;;;;;;;;;;;;;;;;;6294553;22;19988;-86
2022/08/06 09:58:14;;;;;;;;;;;;;;;;;;6265921;22;20311;-86
2022/08/06 10:00:40;;;;;;;;;;;;;;;;;;6295582;22;19922;-87
2022/08/06 10:03:06;;;;;;;;;;;;;;;;;;6263217;22;19981;-87
2022/08/06 10:05:32;;;;;;;;;;;;;;;;;;6293068;22;19915;-87
2022/08/06 10:08:01;;;;;;;;;;;;;;;;;;6268137;22;20118;-86
2022/08/06 10:10:30;;;;;;;;;;;;;;;;;;6288750;22;20018;-86
2022/08/06 10:12:56;;;;;;;;;;;;;;;;;;6288809;22;19958;-87
2022/08/06 10:15:22;;;;;;;;;;;;;;;;;;6265676;22;19911;-86
2022/08/06 10:17:48;;;;;;;;;;;;;;;;;;6289227;22;19910;-86
2022/08/06 10:20:16;;;;;;;;;;;;;;;;;;6259500;22;20009;-86
2022/08/06 10:22:42;;;;;;;;;;;;;;;;;;6285953;22;19919;-87
2022/08/06 10:25:07;;;;;;;;;;;;;;;;;;6287458;22;20352;-87
2022/08/06 10:27:34;;;;;;;;;;;;;;;;;;6291045;22;19919;-87
2022/08/06 10:30:00;;;;;;;;;;;;;;;;;;6233080;22;20339;-87
2022/08/06 10:32:26;;;;;;;;;;;;;;;;;;6287916;22;19915;-87
2022/08/06 10:34:55;;;;;;;;;;;;;;;;;;6289840;22;19942;-85
2022/08/06 10:37:21;;;;;;;;;;;;;;;;;;6259739;22;19982;-87
2022/08/06 10:39:47;;;;;;;;;;;;;;;;;;6288092;22;19959;-86
2022/08/06 10:42:13;;;;;;;;;;;;;;;;;;6285867;22;19922;-86
2022/08/06 10:44:40;;;;;;;;;;;;;;;;;;6259504;22;19923;-86
2022/08/06 10:47:06;;;;;;;;;;;;;;;;;;6283608;22;19918;-86
2022/08/06 10:49:32;;;;;;;;;;;;;;;;;;6259267;22;19914;-86
2022/08/06 10:51:58;;;;;;;;;;;;;;;;;;6256947;22;19921;-86
2022/08/06 10:54:24;;;;;;;;;;;;;;;;;;6285691;22;19921;-86
2022/08/06 10:56:54;;;;;;;;;;;;;;;;;;6286041;22;20324;-86
2022/08/06 10:59:20;;;;;;;;;;;;;;;;;;6231695;22;19975;-86
2022/08/06 11:01:46;;;;;;;;;;;;;;;;;;6284347;22;19922;-87
2022/08/06 11:04:12;;;;;;;;;;;;;;;;;;6283787;22;19926;-86
2022/08/06 11:06:38;;;;;;;;;;;;;;;;;;6285167;22;19932;-86
2022/08/06 11:09:04;;;;;;;;;;;;;;;;;;6286066;22;19946;-87
2022/08/06 11:11:29;;;;;;;;;;;;;;;;;;6284996;22;19914;-87
2022/08/06 11:13:55;;;;;;;;;;;;;;;;;;6288343;22;19915;-87
2022/08/06 11:16:21;;;;;;;;;;;;;;;;;;6282891;22;19953;-86
2022/08/06 11:18:48;;;;;;;;;;;;;;;;;;6284616;22;20342;-87
2022/08/06 11:21:17;;;;;;;;;;;;;;;;;;6253075;22;19918;-86
2022/08/06 11:23:43;;;;;;;;;;;;;;;;;;6257918;22;19921;-86
2022/08/06 11:26:09;;;;;;;;;;;;;;;;;;6284243;22;19922;-87
2022/08/06 11:28:35;;;;;;;;;;;;;;;;;;6286319;22;19914;-87
2022/08/06 11:31:01;;;;;;;;;;;;;;;;;;6284444;22;19976;-87
2022/08/06 11:33:27;;;;;;;;;;;;;;;;;;6260435;22;19989;-86
2022/08/06 11:35:53;;;;;;;;;;;;;;;;;;6261450;22;19914;-88
2022/08/06 11:38:19;;;;;;;;;;;;;;;;;;6283655;22;19944;-89
2022/08/06 11:40:45;;;;;;;;;;;;;;;;;;6290618;22;20301;-87
2022/08/06 11:43:11;;;;;;;;;;;;;;;;;;6289257;22;19952;-87
2022/08/06 11:45:38;;;;;;;;;;;;;;;;;;6302580;22;19914;-88
2022/08/06 11:48:05;;;;;;;;;;;;;;;;;;6290436;22;19953;-88
2022/08/06 11:50:31;;;;;;;;;;;;;;;;;;6293379;22;19985;-88
2022/08/06 11:52:59;;;;;;;;;;;;;;;;;;6290928;22;19957;-87
2022/08/06 11:55:26;;;;;;;;;;;;;;;;;;6265044;22;19914;-87
2022/08/06 11:57:52;;;;;;;;;;;;;;;;;;6240348;22;19922;-88
2022/08/06 12:00:18;;;;;;;;;;;;;;;;;;6287550;22;19919;-87
2022/08/06 12:02:46;;;;;;;;;;;;;;;;;;6264930;22;19911;-88
2022/08/06 12:05:11;;;;;;;;;;;;;;;;;;6261731;22;19915;-88
2022/08/06 12:07:38;;;;;;;;;;;;;;;;;;6265282;22;19914;-87
2022/08/06 12:10:04;;;;;;;;;;;;;;;;;;6261503;22;19915;-88
2022/08/06 12:12:33;;;;;;;;;;;;;;;;;;6261811;22;19911;-87
2022/08/06 12:14:59;;;;;;;;;;;;;;;;;;6258921;22;20303;-86
2022/08/06 12:17:25;;;;;;;;;;;;;;;;;;6287451;22;19946;-86
2022/08/06 12:19:51;;;;;;;;;;;;;;;;;;6290430;22;19921;-86
2022/08/06 12:22:17;;;;;;;;;;;;;;;;;;6289161;22;20362;-86
2022/08/06 12:24:43;;;;;;;;;;;;;;;;;;6291843;22;19921;-86
2022/08/06 12:27:09;;;;;;;;;;;;;;;;;;6290970;22;19914;-86
2022/08/06 12:29:35;;;;;;;;;;;;;;;;;;6268174;22;19911;-86
2022/08/06 12:32:01;;;;;;;;;;;;;;;;;;6290216;22;19914;-89
2022/08/06 12:34:27;;;;;;;;;;;;;;;;;;6267732;22;20244;-88
2022/08/06 12:36:53;;;;;;;;;;;;;;;;;;6265434;22;20003;-90
2022/08/06 12:39:19;;;;;;;;;;;;;;;;;;6262600;22;21021;-89
2022/08/06 12:41:45;;;;;;;;;;;;;;;;;;6264943;22;20636;-91
2022/08/06 12:44:11;;;;;;;;;;;;;;;;;;6262802;22;19921;-90
2022/08/06 12:46:37;;;;;;;;;;;;;;;;;;6264748;22;19942;-87
2022/08/06 12:49:03;;;;;;;;;;;;;;;;;;6288189;22;19966;-84
2022/08/06 12:51:32;;;;;;;;;;;;;;;;;;6264548;22;19911;-88
2022/08/06 12:53:58;;;;;;;;;;;;;;;;;;6291856;22;19960;-87
2022/08/06 12:56:24;;;;;;;;;;;;;;;;;;6290490;22;20323;-86
2022/08/06 12:58:50;;;;;;;;;;;;;;;;;;6292038;22;19915;-86
2022/08/06 13:01:16;;;;;;;;;;;;;;;;;;6261095;22;19958;-85
2022/08/06 13:03:42;;;;;;;;;;;;;;;;;;6291186;22;19918;-84
2022/08/06 13:06:08;;;;;;;;;;;;;;;;;;6261704;22;19915;-85
2022/08/06 13:08:34;;;;;;;;;;;;;;;;;;6262745;22;19911;-87
2022/08/06 13:11:00;;;;;;;;;;;;;;;;;;6259340;22;20363;-85
2022/08/06 13:13:29;;;;;;;;;;;;;;;;;;6289997;22;19911;-85
2022/08/06 13:15:55;;;;;;;;;;;;;;;;;;6261883;22;20336;-85
2022/08/06 13:18:21;;;;;;;;;;;;;;;;;;6283544;22;19915;-85
2022/08/06 13:20:47;;;;;;;;;;;;;;;;;;6287796;22;19968;-85
2022/08/06 13:23:13;;;;;;;;;;;;;;;;;;6259898;22;19921;-84
2022/08/06 13:25:39;;;;;;;;;;;;;;;;;;6286013;22;19922;-84
2022/08/06 13:28:05;;;;;;;;;;;;;;;;;;6255867;22;20427;-84
2022/08/06 13:30:31;;;;;;;;;;;;;;;;;;6259920;22;20243;-85
2022/08/06 13:32:57;;;;;;;;;;;;;;;;;;6288318;22;19946;-85
2022/08/06 13:35:27;;;;;;;;;;;;;;;;;;6286039;22;19965;-85
2022/08/06 13:37:53;;;;;;;;;;;;;;;;;;6288321;22;19915;-85
2022/08/06 13:40:19;;;;;;;;;;;;;;;;;;6290120;22;20458;-85
2022/08/06 13:42:45;;;;;;;;;;;;;;;;;;6290695;22;20201;-85
2022/08/06 13:45:11;;;;;;;;;;;;;;;;;;6263841;22;19926;-84
2022/08/06 13:47:37;;;;;;;;;;;;;;;;;;6266714;22;19949;-85
2022/08/06 13:50:03;;;;;;;;;;;;;;;;;;6287936;22;19925;-85
2022/08/06 13:52:29;;;;;;;;;;;;;;;;;;6262386;22;20477;-85
2022/08/06 13:54:55;;;;;;;;;;;;;;;;;;6289598;22;20160;-85
2022/08/06 13:57:21;;;;;;;;;;;;;;;;;;6286924;22;19965;-85
2022/08/06 13:59:47;;;;;;;;;;;;;;;;;;6290442;22;19980;-85
2022/08/06 14:02:13;;;;;;;;;;;;;;;;;;6286493;22;19942;-84
2022/08/06 14:04:39;;;;;;;;;;;;;;;;;;6289421;22;19973;-84
2022/08/06 14:07:05;;;;;;;;;;;;;;;;;;6252325;22;20653;-84
2022/08/06 14:09:33;;;;;;;;;;;;;;;;;;6259815;22;19911;-84
2022/08/06 14:11:59;;;;;;;;;;;;;;;;;;6231050;22;19975;-84
2022/08/06 14:14:25;;;;;;;;;;;;;;;;;;6259691;22;19915;-84
2022/08/06 14:16:51;;;;;;;;;;;;;;;;;;6258323;22;20413;-84
2022/08/06 14:19:18;;;;;;;;;;;;;;;;;;6256852;22;19930;-84
2022/08/06 14:21:44;;;;;;;;;;;;;;;;;;6258113;22;19918;-83
2022/08/06 14:24:10;;;;;;;;;;;;;;;;;;6258833;22;20346;-84
2022/08/06 14:26:37;;;;;;;;;;;;;;;;;;6260900;22;19915;-84
2022/08/06 14:29:03;;;;;;;;;;;;;;;;;;6260540;22;20243;-86
2022/08/06 14:31:29;;;;;;;;;;;;;;;;;;6285336;22;19915;-85
2022/08/06 14:33:59;;;;;;;;;;;;;;;;;;6285926;22;19925;-85
2022/08/06 14:36:46;;;;;;;;;;;;;;;;;;6235840;22;19914;-85
2022/08/06 14:52:29;;;;;;;;;;;;;;;;;;;;;
2022/08/06 15:01:36;;;;;;;;;;;;;;;;;;;;;
2022/08/06 15:04:31;;;;;;;;;;;;;;;;;;;;;
2022/08/06 16:04:02;;;;;;;;;;;;;;;;;;;;;
2022/08/06 16:41:28;;;;;;;;;;;;;;;;;;6247487;22;19923;-86
2022/08/06 17:09:31;;;;;;;;;;;;;;;;;;6027536;23;20346;-86
2022/08/06 17:56:08;;;;;;;;;;;;;;;;;;;;;
2022/08/06 17:59:07;;;;;;;;;;;;;;;;;;5889210;24;19919;-86
2022/08/06 18:01:58;;;;;;;;;;;;;;;;;;6002244;23;19986;-86
2022/08/06 18:11:06;;;;;;;;;;;;;;;;;;5954194;24;19919;-85
2022/08/06 18:26:13;;;;;;;;;;;;;;;;;;6145350;23;20168;-84
2022/08/06 18:35:23;;;;;;;;;;;;;;;;;;;;;
2022/08/06 18:47:15;;;;;;;;;;;;;;;;;;6124151;23;20334;-86
2022/08/06 18:55:51;;;;;;;;;;;;;;;;;;6204610;22;19930;-87
2022/08/06 18:58:17;;;;;;;;;;;;;;;;;;6230007;22;20355;-88
2022/08/06 19:00:43;;;;;;;;;;;;;;;;;;6233411;22;19950;-85
2022/08/06 19:03:09;;;;;;;;;;;;;;;;;;6231302;22;19934;-87
2022/08/06 19:05:35;;;;;;;;;;;;;;;;;;6239298;22;19968;-86
2022/08/06 19:08:02;;;;;;;;;;;;;;;;;;6263351;22;20344;-86
2022/08/06 19:10:28;;;;;;;;;;;;;;;;;;6263021;22;19910;-86
2022/08/06 19:12:54;;;;;;;;;;;;;;;;;;6291976;22;20351;-86
2022/08/06 19:15:22;;;;;;;;;;;;;;;;;;6258633;22;20251;-87
2022/08/06 19:17:50;;;;;;;;;;;;;;;;;;6290660;22;19953;-87
2022/08/06 19:20:16;;;;;;;;;;;;;;;;;;6260922;22;19958;-87
2022/08/06 19:22:42;;;;;;;;;;;;;;;;;;6263636;22;19915;-87
2022/08/06 19:25:08;;;;;;;;;;;;;;;;;;6258226;22;20064;-86
2022/08/06 19:27:34;;;;;;;;;;;;;;;;;;6262520;22;19976;-87
2022/08/06 19:30:00;;;;;;;;;;;;;;;;;;6257019;22;19922;-87
2022/08/06 19:32:26;;;;;;;;;;;;;;;;;;6262431;22;19925;-87
2022/08/06 19:34:54;;;;;;;;;;;;;;;;;;6238906;22;20320;-87
2022/08/06 19:37:20;;;;;;;;;;;;;;;;;;6260575;22;20406;-86
2022/08/06 19:39:46;;;;;;;;;;;;;;;;;;6261225;22;19926;-87
2022/08/06 19:42:12;;;;;;;;;;;;;;;;;;6263472;22;19986;-87
2022/08/06 19:44:38;;;;;;;;;;;;;;;;;;6291839;22;20362;-87
2022/08/06 19:47:04;;;;;;;;;;;;;;;;;;6262926;22;19934;-87
2022/08/06 19:49:30;;;;;;;;;;;;;;;;;;6264590;22;19976;-87
2022/08/06 19:51:56;;;;;;;;;;;;;;;;;;6265552;22;20324;-87
2022/08/06 19:54:22;;;;;;;;;;;;;;;;;;6262010;22;19915;-87
2022/08/06 19:56:49;;;;;;;;;;;;;;;;;;6263691;22;19937;-86
2022/08/06 19:59:17;;;;;;;;;;;;;;;;;;6288209;22;20250;-87
2022/08/06 20:01:43;;;;;;;;;;;;;;;;;;6289288;22;19918;-87
2022/08/06 20:04:11;;;;;;;;;;;;;;;;;;6262100;22;19915;-87
2022/08/06 20:06:39;;;;;;;;;;;;;;;;;;6263283;22;19921;-87
2022/08/06 20:09:05;;;;;;;;;;;;;;;;;;6262237;22;19972;-87
2022/08/06 20:11:31;;;;;;;;;;;;;;;;;;6262717;22;19915;-87
2022/08/06 20:13:59;;;;;;;;;;;;;;;;;;6260329;22;19925;-88
2022/08/06 20:16:25;;;;;;;;;;;;;;;;;;6232259;22;19969;-88
2022/08/06 20:18:51;;;;;;;;;;;;;;;;;;6259517;22;20240;-87
2022/08/06 20:21:17;;;;;;;;;;;;;;;;;;6257096;22;20059;-88
2022/08/06 20:23:46;;;;;;;;;;;;;;;;;;6259055;22;19976;-88
2022/08/06 20:26:13;;;;;;;;;;;;;;;;;;6231777;22;20094;-87
2022/08/06 20:28:39;;;;;;;;;;;;;;;;;;6234172;22;19914;-87
2022/08/06 20:31:15;;;;;;;;;;;;;;;;;;6293777;22;19941;-87